sensor_id;sensor_type;location;lat;lon;timestamp;temperature;humidity
72338;DHT22;60294;64.134;-21.862;2022-09-09T00:01:51;12.80;79.50
72338;DHT22;60294;64.134;-21.862;2022-09-09T00:06:55;12.80;79.80
72338;DHT22;60294;64.134;-21.862;2022-09-09T00:09:27;12.80;79.80
72338;DHT22;60294;64.134;-21.862;2022-09-09T00:12:11;12.80;80.00
72338;DHT22;60294;64.134;-21.862;2022-09-09T00:14:52;12.90;79.90
72338;DHT22;60294;64.134;-21.862;2022-09-09T00:22:29;12.90;79.60
72338;DHT22;60294;64.134;-21.862;2022-09-09T00:25:11;12.90;79.80
72338;DHT22;60294;64.134;-21.862;2022-09-09T00:27:48;13.00;79.70
72338;DHT22;60294;64.134;-21.862;2022-09-09T00:30:15;12.90;79.50
72338;DHT22;60294;64.134;-21.862;2022-09-09T00:32:46;12.90;79.80
72338;DHT22;60294;64.134;-21.862;2022-09-09T00:35:22;12.80;80.20
72338;DHT22;60294;64.134;-21.862;2022-09-09T00:37:52;12.80;80.80
72338;DHT22;60294;64.134;-21.862;2022-09-09T00:40:34;12.70;80.70
72338;DHT22;60294;64.134;-21.862;2022-09-09T00:43:10;12.80;80.60
72338;DHT22;60294;64.134;-21.862;2022-09-09T00:48:17;12.80;80.90
72338;DHT22;60294;64.134;-21.862;2022-09-09T00:51:08;12.80;80.90
72338;DHT22;60294;64.134;-21.862;2022-09-09T00:53:56;12.80;81.30
72338;DHT22;60294;64.134;-21.862;2022-09-09T00:56:30;12.70;81.30
72338;DHT22;60294;64.134;-21.862;2022-09-09T01:01:36;12.80;81.40
72338;DHT22;60294;64.134;-21.862;2022-09-09T01:04:12;12.80;81.60
72338;DHT22;60294;64.134;-21.862;2022-09-09T01:06:42;12.80;81.80
72338;DHT22;60294;64.134;-21.862;2022-09-09T01:09:24;12.80;81.70
72338;DHT22;60294;64.134;-21.862;2022-09-09T01:12:23;12.80;81.80
72338;DHT22;60294;64.134;-21.862;2022-09-09T01:14:54;12.70;82.30
72338;DHT22;60294;64.134;-21.862;2022-09-09T01:17:31;12.80;81.90
72338;DHT22;60294;64.134;-21.862;2022-09-09T01:26:04;12.90;81.70
72338;DHT22;60294;64.134;-21.862;2022-09-09T01:28:33;12.70;82.00
72338;DHT22;60294;64.134;-21.862;2022-09-09T01:31:01;12.70;82.00
72338;DHT22;60294;64.134;-21.862;2022-09-09T01:33:28;12.80;81.80
72338;DHT22;60294;64.134;-21.862;2022-09-09T01:38:32;12.70;81.50
72338;DHT22;60294;64.134;-21.862;2022-09-09T01:40:58;12.70;81.00
72338;DHT22;60294;64.134;-21.862;2022-09-09T01:43:25;12.60;81.50
72338;DHT22;60294;64.134;-21.862;2022-09-09T01:45:54;12.70;81.80
72338;DHT22;60294;64.134;-21.862;2022-09-09T01:48:22;12.60;81.80
72338;DHT22;60294;64.134;-21.862;2022-09-09T01:50:49;12.60;82.10
72338;DHT22;60294;64.134;-21.862;2022-09-09T01:53:16;12.60;82.10
72338;DHT22;60294;64.134;-21.862;2022-09-09T01:56:08;12.70;82.30
72338;DHT22;60294;64.134;-21.862;2022-09-09T02:01:42;12.60;82.50
72338;DHT22;60294;64.134;-21.862;2022-09-09T02:06:56;12.60;82.20
72338;DHT22;60294;64.134;-21.862;2022-09-09T02:09:24;12.60;82.30
72338;DHT22;60294;64.134;-21.862;2022-09-09T02:12:00;12.60;82.40
72338;DHT22;60294;64.134;-21.862;2022-09-09T02:14:33;12.60;82.30
72338;DHT22;60294;64.134;-21.862;2022-09-09T02:17:07;12.60;82.30
72338;DHT22;60294;64.134;-21.862;2022-09-09T02:19:38;12.60;81.80
72338;DHT22;60294;64.134;-21.862;2022-09-09T02:22:05;12.60;81.50
72338;DHT22;60294;64.134;-21.862;2022-09-09T02:24:34;12.60;82.00
72338;DHT22;60294;64.134;-21.862;2022-09-09T02:27:04;12.60;81.80
72338;DHT22;60294;64.134;-21.862;2022-09-09T02:29:44;12.60;81.60
72338;DHT22;60294;64.134;-21.862;2022-09-09T02:32:15;12.60;81.80
72338;DHT22;60294;64.134;-21.862;2022-09-09T02:34:48;12.60;81.90
72338;DHT22;60294;64.134;-21.862;2022-09-09T02:37:17;12.60;82.00
72338;DHT22;60294;64.134;-21.862;2022-09-09T02:39:44;12.60;81.90
72338;DHT22;60294;64.134;-21.862;2022-09-09T02:42:10;12.50;82.10
72338;DHT22;60294;64.134;-21.862;2022-09-09T02:44:36;12.50;82.40
72338;DHT22;60294;64.134;-21.862;2022-09-09T02:50:02;12.50;82.20
72338;DHT22;60294;64.134;-21.862;2022-09-09T02:53:05;12.50;82.30
72338;DHT22;60294;64.134;-21.862;2022-09-09T02:58:08;12.50;82.20
72338;DHT22;60294;64.134;-21.862;2022-09-09T03:00:35;12.50;82.30
72338;DHT22;60294;64.134;-21.862;2022-09-09T03:03:05;12.50;82.40
72338;DHT22;60294;64.134;-21.862;2022-09-09T03:05:32;12.60;82.30
72338;DHT22;60294;64.134;-21.862;2022-09-09T03:07:58;12.50;82.40
72338;DHT22;60294;64.134;-21.862;2022-09-09T03:10:23;12.60;82.20
72338;DHT22;60294;64.134;-21.862;2022-09-09T03:12:49;12.50;82.50
72338;DHT22;60294;64.134;-21.862;2022-09-09T03:15:16;12.60;82.30
72338;DHT22;60294;64.134;-21.862;2022-09-09T03:17:42;12.60;82.40
72338;DHT22;60294;64.134;-21.862;2022-09-09T03:20:08;12.60;82.40
72338;DHT22;60294;64.134;-21.862;2022-09-09T03:22:34;12.60;82.20
72338;DHT22;60294;64.134;-21.862;2022-09-09T03:25:00;12.60;82.30
72338;DHT22;60294;64.134;-21.862;2022-09-09T03:27:28;12.60;82.30
72338;DHT22;60294;64.134;-21.862;2022-09-09T03:29:54;12.60;82.40
72338;DHT22;60294;64.134;-21.862;2022-09-09T03:32:21;12.60;82.20
72338;DHT22;60294;64.134;-21.862;2022-09-09T03:34:51;12.60;82.20
72338;DHT22;60294;64.134;-21.862;2022-09-09T03:37:18;12.60;82.40
72338;DHT22;60294;64.134;-21.862;2022-09-09T03:39:44;12.60;82.20
72338;DHT22;60294;64.134;-21.862;2022-09-09T03:42:13;12.70;82.10
72338;DHT22;60294;64.134;-21.862;2022-09-09T03:44:40;12.70;82.20
72338;DHT22;60294;64.134;-21.862;2022-09-09T03:47:07;12.70;82.10
72338;DHT22;60294;64.134;-21.862;2022-09-09T03:49:33;12.80;82.30
72338;DHT22;60294;64.134;-21.862;2022-09-09T03:51:59;12.80;82.50
72338;DHT22;60294;64.134;-21.862;2022-09-09T03:54:26;12.70;82.80
72338;DHT22;60294;64.134;-21.862;2022-09-09T03:56:52;12.70;82.60
72338;DHT22;60294;64.134;-21.862;2022-09-09T03:59:19;12.80;82.90
72338;DHT22;60294;64.134;-21.862;2022-09-09T04:01:46;12.70;82.90
72338;DHT22;60294;64.134;-21.862;2022-09-09T04:04:13;12.80;82.90
72338;DHT22;60294;64.134;-21.862;2022-09-09T04:06:38;12.80;82.90
72338;DHT22;60294;64.134;-21.862;2022-09-09T04:09:04;12.70;82.90
72338;DHT22;60294;64.134;-21.862;2022-09-09T04:11:30;12.80;82.70
72338;DHT22;60294;64.134;-21.862;2022-09-09T04:13:56;12.80;82.70
72338;DHT22;60294;64.134;-21.862;2022-09-09T04:16:22;12.70;82.90
72338;DHT22;60294;64.134;-21.862;2022-09-09T04:18:48;12.70;82.70
72338;DHT22;60294;64.134;-21.862;2022-09-09T04:21:14;12.80;82.70
72338;DHT22;60294;64.134;-21.862;2022-09-09T04:23:41;12.90;82.60
72338;DHT22;60294;64.134;-21.862;2022-09-09T04:26:07;12.90;82.60
72338;DHT22;60294;64.134;-21.862;2022-09-09T04:28:36;12.90;82.60
72338;DHT22;60294;64.134;-21.862;2022-09-09T04:31:17;12.90;82.50
72338;DHT22;60294;64.134;-21.862;2022-09-09T04:33:44;12.80;82.40
72338;DHT22;60294;64.134;-21.862;2022-09-09T04:36:10;12.80;82.30
72338;DHT22;60294;64.134;-21.862;2022-09-09T04:38:36;12.90;82.20
72338;DHT22;60294;64.134;-21.862;2022-09-09T04:41:02;12.90;82.20
72338;DHT22;60294;64.134;-21.862;2022-09-09T04:43:28;12.90;82.20
72338;DHT22;60294;64.134;-21.862;2022-09-09T04:45:54;12.90;82.10
72338;DHT22;60294;64.134;-21.862;2022-09-09T04:48:20;12.90;82.00
72338;DHT22;60294;64.134;-21.862;2022-09-09T04:51:01;12.90;82.10
72338;DHT22;60294;64.134;-21.862;2022-09-09T04:53:27;13.00;82.10
72338;DHT22;60294;64.134;-21.862;2022-09-09T04:56:06;13.00;82.00
72338;DHT22;60294;64.134;-21.862;2022-09-09T04:58:32;12.90;82.10
72338;DHT22;60294;64.134;-21.862;2022-09-09T05:01:08;12.90;82.10
72338;DHT22;60294;64.134;-21.862;2022-09-09T05:03:35;13.00;82.10
72338;DHT22;60294;64.134;-21.862;2022-09-09T05:06:06;13.00;82.10
72338;DHT22;60294;64.134;-21.862;2022-09-09T05:08:34;12.90;82.30
72338;DHT22;60294;64.134;-21.862;2022-09-09T05:11:00;13.00;82.60
72338;DHT22;60294;64.134;-21.862;2022-09-09T05:13:26;13.00;82.60
72338;DHT22;60294;64.134;-21.862;2022-09-09T05:15:54;13.00;82.50
72338;DHT22;60294;64.134;-21.862;2022-09-09T05:18:20;13.00;82.60
72338;DHT22;60294;64.134;-21.862;2022-09-09T05:20:48;13.00;82.30
72338;DHT22;60294;64.134;-21.862;2022-09-09T05:23:14;13.00;82.20
72338;DHT22;60294;64.134;-21.862;2022-09-09T05:25:40;13.00;82.40
72338;DHT22;60294;64.134;-21.862;2022-09-09T05:28:07;13.10;82.30
72338;DHT22;60294;64.134;-21.862;2022-09-09T05:30:33;13.10;82.20
72338;DHT22;60294;64.134;-21.862;2022-09-09T05:33:00;13.10;82.20
72338;DHT22;60294;64.134;-21.862;2022-09-09T05:35:26;13.10;82.20
72338;DHT22;60294;64.134;-21.862;2022-09-09T05:37:52;13.00;82.10
72338;DHT22;60294;64.134;-21.862;2022-09-09T05:40:17;13.00;82.70
72338;DHT22;60294;64.134;-21.862;2022-09-09T05:42:44;13.10;82.50
72338;DHT22;60294;64.134;-21.862;2022-09-09T05:45:09;13.10;82.50
72338;DHT22;60294;64.134;-21.862;2022-09-09T05:47:36;13.10;82.80
72338;DHT22;60294;64.134;-21.862;2022-09-09T05:50:03;13.10;82.70
72338;DHT22;60294;64.134;-21.862;2022-09-09T05:52:29;13.10;82.80
72338;DHT22;60294;64.134;-21.862;2022-09-09T05:54:55;13.10;83.00
72338;DHT22;60294;64.134;-21.862;2022-09-09T05:57:22;13.10;82.80
72338;DHT22;60294;64.134;-21.862;2022-09-09T05:59:48;13.10;82.80
72338;DHT22;60294;64.134;-21.862;2022-09-09T06:02:15;13.10;82.50
72338;DHT22;60294;64.134;-21.862;2022-09-09T06:04:41;13.10;82.40
72338;DHT22;60294;64.134;-21.862;2022-09-09T06:07:07;13.10;82.50
72338;DHT22;60294;64.134;-21.862;2022-09-09T06:09:33;13.10;82.60
72338;DHT22;60294;64.134;-21.862;2022-09-09T06:11:58;13.10;82.60
72338;DHT22;60294;64.134;-21.862;2022-09-09T06:14:24;13.10;82.50
72338;DHT22;60294;64.134;-21.862;2022-09-09T06:16:52;13.10;82.80
72338;DHT22;60294;64.134;-21.862;2022-09-09T06:19:18;13.10;82.80
72338;DHT22;60294;64.134;-21.862;2022-09-09T06:21:45;13.20;82.80
72338;DHT22;60294;64.134;-21.862;2022-09-09T06:24:13;13.20;82.60
72338;DHT22;60294;64.134;-21.862;2022-09-09T06:26:42;13.20;82.80
72338;DHT22;60294;64.134;-21.862;2022-09-09T06:29:09;13.20;82.80
72338;DHT22;60294;64.134;-21.862;2022-09-09T06:31:36;13.20;82.70
72338;DHT22;60294;64.134;-21.862;2022-09-09T06:34:04;13.20;83.00
72338;DHT22;60294;64.134;-21.862;2022-09-09T06:36:32;13.10;83.10
72338;DHT22;60294;64.134;-21.862;2022-09-09T06:38:59;13.10;83.30
72338;DHT22;60294;64.134;-21.862;2022-09-09T06:41:27;13.20;83.40
72338;DHT22;60294;64.134;-21.862;2022-09-09T06:43:53;13.10;83.40
72338;DHT22;60294;64.134;-21.862;2022-09-09T06:46:23;13.10;83.50
72338;DHT22;60294;64.134;-21.862;2022-09-09T06:48:48;13.20;83.50
72338;DHT22;60294;64.134;-21.862;2022-09-09T06:51:20;13.20;83.60
72338;DHT22;60294;64.134;-21.862;2022-09-09T06:53:56;13.10;83.80
72338;DHT22;60294;64.134;-21.862;2022-09-09T06:56:23;13.20;84.00
72338;DHT22;60294;64.134;-21.862;2022-09-09T06:58:50;13.10;84.40
72338;DHT22;60294;64.134;-21.862;2022-09-09T07:01:36;13.10;84.70
72338;DHT22;60294;64.134;-21.862;2022-09-09T07:04:03;13.10;85.00
72338;DHT22;60294;64.134;-21.862;2022-09-09T07:06:35;13.20;85.20
72338;DHT22;60294;64.134;-21.862;2022-09-09T07:09:06;13.10;85.30
72338;DHT22;60294;64.134;-21.862;2022-09-09T07:11:40;13.10;85.40
72338;DHT22;60294;64.134;-21.862;2022-09-09T07:14:07;13.00;85.60
72338;DHT22;60294;64.134;-21.862;2022-09-09T07:16:34;13.10;85.70
72338;DHT22;60294;64.134;-21.862;2022-09-09T07:19:03;13.10;85.90
72338;DHT22;60294;64.134;-21.862;2022-09-09T07:21:30;13.10;85.90
72338;DHT22;60294;64.134;-21.862;2022-09-09T07:23:57;13.10;86.00
72338;DHT22;60294;64.134;-21.862;2022-09-09T07:26:25;13.10;86.00
72338;DHT22;60294;64.134;-21.862;2022-09-09T07:28:50;13.10;86.10
72338;DHT22;60294;64.134;-21.862;2022-09-09T07:31:22;12.80;86.30
72338;DHT22;60294;64.134;-21.862;2022-09-09T07:33:49;12.70;86.90
72338;DHT22;60294;64.134;-21.862;2022-09-09T07:36:24;12.60;87.20
72338;DHT22;60294;64.134;-21.862;2022-09-09T07:38:53;12.40;88.40
72338;DHT22;60294;64.134;-21.862;2022-09-09T07:41:27;12.40;89.10
72338;DHT22;60294;64.134;-21.862;2022-09-09T07:43:54;12.30;89.20
72338;DHT22;60294;64.134;-21.862;2022-09-09T07:46:21;12.20;88.90
72338;DHT22;60294;64.134;-21.862;2022-09-09T07:48:49;12.20;89.50
72338;DHT22;60294;64.134;-21.862;2022-09-09T07:51:21;12.10;88.90
72338;DHT22;60294;64.134;-21.862;2022-09-09T07:53:48;12.00;89.10
72338;DHT22;60294;64.134;-21.862;2022-09-09T07:56:17;11.90;89.40
72338;DHT22;60294;64.134;-21.862;2022-09-09T07:58:47;11.90;89.90
72338;DHT22;60294;64.134;-21.862;2022-09-09T08:06:20;11.80;89.90
72338;DHT22;60294;64.134;-21.862;2022-09-09T08:08:50;11.80;90.20
72338;DHT22;60294;64.134;-21.862;2022-09-09T08:11:16;11.70;89.80
72338;DHT22;60294;64.134;-21.862;2022-09-09T08:13:43;11.70;90.40
72338;DHT22;60294;64.134;-21.862;2022-09-09T08:16:11;11.70;89.90
72338;DHT22;60294;64.134;-21.862;2022-09-09T08:18:38;11.80;90.50
72338;DHT22;60294;64.134;-21.862;2022-09-09T08:21:11;11.80;90.40
72338;DHT22;60294;64.134;-21.862;2022-09-09T08:23:40;11.80;90.60
72338;DHT22;60294;64.134;-21.862;2022-09-09T08:26:13;11.80;90.50
72338;DHT22;60294;64.134;-21.862;2022-09-09T08:28:41;11.80;90.10
72338;DHT22;60294;64.134;-21.862;2022-09-09T08:31:14;11.80;90.40
72338;DHT22;60294;64.134;-21.862;2022-09-09T08:33:42;11.80;90.00
72338;DHT22;60294;64.134;-21.862;2022-09-09T08:36:11;11.80;89.50
72338;DHT22;60294;64.134;-21.862;2022-09-09T08:38:38;11.80;89.60
72338;DHT22;60294;64.134;-21.862;2022-09-09T08:53:11;11.90;89.40
72338;DHT22;60294;64.134;-21.862;2022-09-09T08:55:58;11.90;89.30
72338;DHT22;60294;64.134;-21.862;2022-09-09T08:58:31;12.00;89.50
72338;DHT22;60294;64.134;-21.862;2022-09-09T09:11:51;12.10;88.90
72338;DHT22;60294;64.134;-21.862;2022-09-09T09:14:24;12.10;89.10
72338;DHT22;60294;64.134;-21.862;2022-09-09T09:17:06;12.10;89.60
72338;DHT22;60294;64.134;-21.862;2022-09-09T09:19:37;12.20;89.60
72338;DHT22;60294;64.134;-21.862;2022-09-09T09:22:20;12.30;89.30
72338;DHT22;60294;64.134;-21.862;2022-09-09T09:29:55;12.30;89.20
72338;DHT22;60294;64.134;-21.862;2022-09-09T09:32:24;12.20;88.40
72338;DHT22;60294;64.134;-21.862;2022-09-09T09:34:55;12.30;89.40
72338;DHT22;60294;64.134;-21.862;2022-09-09T09:37:33;12.40;89.50
72338;DHT22;60294;64.134;-21.862;2022-09-09T09:40:18;12.40;89.10
72338;DHT22;60294;64.134;-21.862;2022-09-09T09:43:03;12.40;89.00
72338;DHT22;60294;64.134;-21.862;2022-09-09T09:45:42;12.40;89.00
72338;DHT22;60294;64.134;-21.862;2022-09-09T09:48:12;12.40;89.30
72338;DHT22;60294;64.134;-21.862;2022-09-09T09:53:26;12.50;89.20
72338;DHT22;60294;64.134;-21.862;2022-09-09T09:56:06;12.50;89.40
72338;DHT22;60294;64.134;-21.862;2022-09-09T10:01:28;12.60;89.00
72338;DHT22;60294;64.134;-21.862;2022-09-09T10:03:58;12.60;88.60
72338;DHT22;60294;64.134;-21.862;2022-09-09T10:06:36;12.60;88.80
72338;DHT22;60294;64.134;-21.862;2022-09-09T10:09:18;12.70;89.00
72338;DHT22;60294;64.134;-21.862;2022-09-09T10:14:21;12.70;88.50
72338;DHT22;60294;64.134;-21.862;2022-09-09T10:17:04;12.60;88.30
72338;DHT22;60294;64.134;-21.862;2022-09-09T10:19:37;12.60;88.70
72338;DHT22;60294;64.134;-21.862;2022-09-09T10:22:10;12.60;88.80
72338;DHT22;60294;64.134;-21.862;2022-09-09T10:30:58;12.60;88.40
72338;DHT22;60294;64.134;-21.862;2022-09-09T10:33:42;12.60;88.70
72338;DHT22;60294;64.134;-21.862;2022-09-09T10:39:14;12.60;88.80
72338;DHT22;60294;64.134;-21.862;2022-09-09T10:42:06;12.60;88.80
72338;DHT22;60294;64.134;-21.862;2022-09-09T10:47:45;12.60;88.60
72338;DHT22;60294;64.134;-21.862;2022-09-09T10:55:42;12.50;89.00
72338;DHT22;60294;64.134;-21.862;2022-09-09T10:58:14;12.60;89.00
72338;DHT22;60294;64.134;-21.862;2022-09-09T11:00:48;12.50;88.90
72338;DHT22;60294;64.134;-21.862;2022-09-09T11:03:26;12.50;88.90
72338;DHT22;60294;64.134;-21.862;2022-09-09T11:06:03;12.60;89.00
72338;DHT22;60294;64.134;-21.862;2022-09-09T11:08:32;12.50;89.10
72338;DHT22;60294;64.134;-21.862;2022-09-09T11:11:22;12.60;89.00
72338;DHT22;60294;64.134;-21.862;2022-09-09T11:21:47;12.60;89.10
72338;DHT22;60294;64.134;-21.862;2022-09-09T11:24:31;12.60;89.10
72338;DHT22;60294;64.134;-21.862;2022-09-09T11:27:00;12.60;88.60
72338;DHT22;60294;64.134;-21.862;2022-09-09T11:32:21;12.70;88.60
72338;DHT22;60294;64.134;-21.862;2022-09-09T11:40:25;12.80;88.20
72338;DHT22;60294;64.134;-21.862;2022-09-09T11:43:15;12.80;88.20
72338;DHT22;60294;64.134;-21.862;2022-09-09T11:45:51;12.90;88.10
72338;DHT22;60294;64.134;-21.862;2022-09-09T11:48:37;12.90;88.00
72338;DHT22;60294;64.134;-21.862;2022-09-09T11:51:07;12.90;88.00
72338;DHT22;60294;64.134;-21.862;2022-09-09T11:53:36;12.90;87.90
72338;DHT22;60294;64.134;-21.862;2022-09-09T11:56:13;13.00;87.60
72338;DHT22;60294;64.134;-21.862;2022-09-09T11:58:59;13.10;87.70
72338;DHT22;60294;64.134;-21.862;2022-09-09T12:01:41;13.10;87.50
72338;DHT22;60294;64.134;-21.862;2022-09-09T12:06:54;13.10;87.40
72338;DHT22;60294;64.134;-21.862;2022-09-09T12:15:00;13.30;87.30
72338;DHT22;60294;64.134;-21.862;2022-09-09T12:17:29;13.30;86.80
72338;DHT22;60294;64.134;-21.862;2022-09-09T12:23:13;13.20;87.20
72338;DHT22;60294;64.134;-21.862;2022-09-09T12:26:03;13.30;87.40
72338;DHT22;60294;64.134;-21.862;2022-09-09T12:28:52;13.30;87.30
72338;DHT22;60294;64.134;-21.862;2022-09-09T12:31:38;13.10;85.40
72338;DHT22;60294;64.134;-21.862;2022-09-09T12:36:42;13.00;86.60
72338;DHT22;60294;64.134;-21.862;2022-09-09T12:39:22;13.10;87.40
72338;DHT22;60294;64.134;-21.862;2022-09-09T12:41:53;13.20;87.40
72338;DHT22;60294;64.134;-21.862;2022-09-09T12:44:22;13.10;87.10
72338;DHT22;60294;64.134;-21.862;2022-09-09T12:46:48;13.20;87.00
72338;DHT22;60294;64.134;-21.862;2022-09-09T12:49:40;13.20;87.40
72338;DHT22;60294;64.134;-21.862;2022-09-09T12:52:30;13.20;87.40
72338;DHT22;60294;64.134;-21.862;2022-09-09T12:55:00;13.10;87.70
72338;DHT22;60294;64.134;-21.862;2022-09-09T12:57:35;13.20;87.80
72338;DHT22;60294;64.134;-21.862;2022-09-09T13:00:15;13.20;87.30
72338;DHT22;60294;64.134;-21.862;2022-09-09T13:03:26;13.20;87.70
72338;DHT22;60294;64.134;-21.862;2022-09-09T13:05:53;13.20;87.80
72338;DHT22;60294;64.134;-21.862;2022-09-09T13:08:19;13.20;87.90
72338;DHT22;60294;64.134;-21.862;2022-09-09T13:11:02;13.20;88.30
72338;DHT22;60294;64.134;-21.862;2022-09-09T13:13:39;13.10;87.80
72338;DHT22;60294;64.134;-21.862;2022-09-09T13:16:07;13.10;87.90
72338;DHT22;60294;64.134;-21.862;2022-09-09T13:18:42;13.10;87.90
72338;DHT22;60294;64.134;-21.862;2022-09-09T13:21:09;13.10;88.30
72338;DHT22;60294;64.134;-21.862;2022-09-09T13:23:36;13.10;88.30
72338;DHT22;60294;64.134;-21.862;2022-09-09T13:26:06;13.10;88.20
72338;DHT22;60294;64.134;-21.862;2022-09-09T13:28:47;13.00;88.40
72338;DHT22;60294;64.134;-21.862;2022-09-09T13:31:35;12.90;88.40
72338;DHT22;60294;64.134;-21.862;2022-09-09T13:34:13;12.90;88.60
72338;DHT22;60294;64.134;-21.862;2022-09-09T13:36:40;12.80;88.50
72338;DHT22;60294;64.134;-21.862;2022-09-09T13:39:15;12.80;88.90
72338;DHT22;60294;64.134;-21.862;2022-09-09T13:41:44;12.90;89.10
72338;DHT22;60294;64.134;-21.862;2022-09-09T13:47:00;12.90;88.50
72338;DHT22;60294;64.134;-21.862;2022-09-09T13:49:29;12.90;88.60
72338;DHT22;60294;64.134;-21.862;2022-09-09T13:52:13;12.90;88.60
72338;DHT22;60294;64.134;-21.862;2022-09-09T13:54:39;12.80;88.50
72338;DHT22;60294;64.134;-21.862;2022-09-09T13:57:13;12.70;88.60
72338;DHT22;60294;64.134;-21.862;2022-09-09T13:59:40;12.80;88.90
72338;DHT22;60294;64.134;-21.862;2022-09-09T14:02:07;12.80;88.60
72338;DHT22;60294;64.134;-21.862;2022-09-09T14:04:33;12.90;88.90
72338;DHT22;60294;64.134;-21.862;2022-09-09T14:07:00;12.80;88.70
72338;DHT22;60294;64.134;-21.862;2022-09-09T14:09:26;12.90;88.90
72338;DHT22;60294;64.134;-21.862;2022-09-09T14:11:52;13.00;89.30
72338;DHT22;60294;64.134;-21.862;2022-09-09T14:14:18;13.10;89.00
72338;DHT22;60294;64.134;-21.862;2022-09-09T14:16:44;13.10;88.80
72338;DHT22;60294;64.134;-21.862;2022-09-09T14:19:10;13.00;88.80
72338;DHT22;60294;64.134;-21.862;2022-09-09T14:21:35;13.10;89.30
72338;DHT22;60294;64.134;-21.862;2022-09-09T14:24:01;13.10;89.50
72338;DHT22;60294;64.134;-21.862;2022-09-09T14:26:27;13.10;89.60
72338;DHT22;60294;64.134;-21.862;2022-09-09T14:28:55;13.20;89.50
72338;DHT22;60294;64.134;-21.862;2022-09-09T14:31:22;13.20;89.30
72338;DHT22;60294;64.134;-21.862;2022-09-09T14:33:48;13.20;89.70
72338;DHT22;60294;64.134;-21.862;2022-09-09T14:36:14;13.30;89.70
72338;DHT22;60294;64.134;-21.862;2022-09-09T14:38:40;13.30;89.70
72338;DHT22;60294;64.134;-21.862;2022-09-09T14:41:09;13.40;89.60
72338;DHT22;60294;64.134;-21.862;2022-09-09T14:43:37;13.40;89.70
72338;DHT22;60294;64.134;-21.862;2022-09-09T14:46:12;13.40;89.70
72338;DHT22;60294;64.134;-21.862;2022-09-09T14:48:39;13.40;89.90
72338;DHT22;60294;64.134;-21.862;2022-09-09T14:51:08;13.40;89.80
72338;DHT22;60294;64.134;-21.862;2022-09-09T14:53:34;13.40;90.00
72338;DHT22;60294;64.134;-21.862;2022-09-09T14:56:15;13.40;90.10
72338;DHT22;60294;64.134;-21.862;2022-09-09T14:58:41;13.50;90.20
72338;DHT22;60294;64.134;-21.862;2022-09-09T15:01:11;13.60;90.20
72338;DHT22;60294;64.134;-21.862;2022-09-09T15:03:38;13.60;89.80
72338;DHT22;60294;64.134;-21.862;2022-09-09T15:06:11;13.60;89.60
72338;DHT22;60294;64.134;-21.862;2022-09-09T15:08:39;13.60;89.70
72338;DHT22;60294;64.134;-21.862;2022-09-09T15:11:06;13.50;89.60
72338;DHT22;60294;64.134;-21.862;2022-09-09T15:13:36;13.50;89.40
72338;DHT22;60294;64.134;-21.862;2022-09-09T15:16:08;13.40;88.50
72338;DHT22;60294;64.134;-21.862;2022-09-09T15:18:34;13.40;88.80
72338;DHT22;60294;64.134;-21.862;2022-09-09T15:21:03;13.40;88.70
72338;DHT22;60294;64.134;-21.862;2022-09-09T15:23:34;13.50;89.10
72338;DHT22;60294;64.134;-21.862;2022-09-09T15:26:01;13.60;89.10
72338;DHT22;60294;64.134;-21.862;2022-09-09T15:28:27;13.60;88.70
72338;DHT22;60294;64.134;-21.862;2022-09-09T15:30:54;13.40;88.60
72338;DHT22;60294;64.134;-21.862;2022-09-09T15:33:22;13.40;88.80
72338;DHT22;60294;64.134;-21.862;2022-09-09T15:35:48;13.40;88.90
72338;DHT22;60294;64.134;-21.862;2022-09-09T15:38:15;13.40;89.00
72338;DHT22;60294;64.134;-21.862;2022-09-09T15:40:43;13.30;89.10
72338;DHT22;60294;64.134;-21.862;2022-09-09T15:43:09;13.40;89.40
72338;DHT22;60294;64.134;-21.862;2022-09-09T15:45:36;13.30;89.40
72338;DHT22;60294;64.134;-21.862;2022-09-09T15:48:05;13.30;89.50
72338;DHT22;60294;64.134;-21.862;2022-09-09T15:50:31;13.30;89.70
72338;DHT22;60294;64.134;-21.862;2022-09-09T15:52:58;13.20;89.70
72338;DHT22;60294;64.134;-21.862;2022-09-09T15:55:24;13.30;89.60
72338;DHT22;60294;64.134;-21.862;2022-09-09T15:57:51;13.20;89.60
72338;DHT22;60294;64.134;-21.862;2022-09-09T16:00:19;13.20;89.40
72338;DHT22;60294;64.134;-21.862;2022-09-09T16:02:46;13.20;89.50
72338;DHT22;60294;64.134;-21.862;2022-09-09T16:05:12;13.20;89.20
72338;DHT22;60294;64.134;-21.862;2022-09-09T16:07:38;13.30;89.00
72338;DHT22;60294;64.134;-21.862;2022-09-09T16:10:04;13.20;89.10
72338;DHT22;60294;64.134;-21.862;2022-09-09T16:12:31;13.30;88.90
72338;DHT22;60294;64.134;-21.862;2022-09-09T16:14:58;13.30;89.10
72338;DHT22;60294;64.134;-21.862;2022-09-09T16:17:25;13.30;89.40
72338;DHT22;60294;64.134;-21.862;2022-09-09T16:19:50;13.30;89.40
72338;DHT22;60294;64.134;-21.862;2022-09-09T16:22:16;13.30;89.60
72338;DHT22;60294;64.134;-21.862;2022-09-09T16:24:43;13.20;89.90
72338;DHT22;60294;64.134;-21.862;2022-09-09T16:27:10;13.10;89.60
72338;DHT22;60294;64.134;-21.862;2022-09-09T16:29:37;13.10;89.60
72338;DHT22;60294;64.134;-21.862;2022-09-09T16:32:02;13.10;89.30
72338;DHT22;60294;64.134;-21.862;2022-09-09T16:34:29;13.10;89.60
72338;DHT22;60294;64.134;-21.862;2022-09-09T16:36:54;13.00;89.30
72338;DHT22;60294;64.134;-21.862;2022-09-09T16:39:21;13.00;89.70
72338;DHT22;60294;64.134;-21.862;2022-09-09T16:41:48;13.00;89.80
72338;DHT22;60294;64.134;-21.862;2022-09-09T16:44:15;12.90;90.00
72338;DHT22;60294;64.134;-21.862;2022-09-09T16:46:44;12.90;90.10
72338;DHT22;60294;64.134;-21.862;2022-09-09T16:49:12;12.90;90.00
72338;DHT22;60294;64.134;-21.862;2022-09-09T16:51:40;12.80;90.10
72338;DHT22;60294;64.134;-21.862;2022-09-09T16:54:08;12.90;90.20
72338;DHT22;60294;64.134;-21.862;2022-09-09T16:56:36;12.80;90.20
72338;DHT22;60294;64.134;-21.862;2022-09-09T16:59:08;12.80;90.70
72338;DHT22;60294;64.134;-21.862;2022-09-09T17:01:37;12.80;90.60
72338;DHT22;60294;64.134;-21.862;2022-09-09T17:04:05;12.80;90.90
72338;DHT22;60294;64.134;-21.862;2022-09-09T17:06:33;12.80;91.00
72338;DHT22;60294;64.134;-21.862;2022-09-09T17:09:08;12.80;91.00
72338;DHT22;60294;64.134;-21.862;2022-09-09T17:11:35;12.90;90.80
72338;DHT22;60294;64.134;-21.862;2022-09-09T17:14:01;12.80;90.70
72338;DHT22;60294;64.134;-21.862;2022-09-09T17:16:30;12.90;90.70
72338;DHT22;60294;64.134;-21.862;2022-09-09T17:18:57;12.90;90.40
72338;DHT22;60294;64.134;-21.862;2022-09-09T17:21:25;13.00;90.10
72338;DHT22;60294;64.134;-21.862;2022-09-09T17:23:51;13.00;89.90
72338;DHT22;60294;64.134;-21.862;2022-09-09T17:26:20;13.00;90.10
72338;DHT22;60294;64.134;-21.862;2022-09-09T17:28:46;13.00;90.00